RA73750 UHPP-ULLI
Flight info
| Callsign | RA73750 |
|---|---|
| Flight time | N/A |
| Altitude | 47000 |
| Route | BAKEN A812 OLEGA T411 LABAR M131 NRM L168 RIGNI M58 ARGIP T821 ROGID M856 GIKUR T458 BEPOL |
| Aircraft | C750/M-SABDGRWY/H |
Departure
| Time | 2026-04-22 10:00 |
|---|---|
| Airport | Yelizovo Airport (UHPP) |
Arrival
| Time | N/A |
|---|---|
| Airport | Pulkovo Airport (ULLI) |
| Time | Latitude | Longitude | Altitude | Speed | Heading |
|---|---|---|---|---|---|
| 2026-04-22 09:47 | 53.17071 | 158.42656 | 133 ft | 0 kts | 62° |
| 2026-04-22 09:56 | 53.17072 | 158.42660 | 133 ft | 2 kts | 62° |
| 2026-04-22 09:56 | 53.17070 | 158.42705 | 133 ft | 7 kts | 133° |
| 2026-04-22 09:56 | 53.17025 | 158.42776 | 133 ft | 8 kts | 100° |
| 2026-04-22 09:57 | 53.17048 | 158.42855 | 133 ft | 8 kts | 59° |
| 2026-04-22 09:57 | 53.17076 | 158.42935 | 133 ft | 10 kts | 59° |
| 2026-04-22 09:57 | 53.17127 | 158.43081 | 133 ft | 21 kts | 59° |
| 2026-04-22 09:57 | 53.17214 | 158.43330 | 133 ft | 25 kts | 60° |
| 2026-04-22 09:58 | 53.17297 | 158.43567 | 133 ft | 22 kts | 60° |
| 2026-04-22 09:58 | 53.17372 | 158.43783 | 133 ft | 22 kts | 60° |
| 2026-04-22 09:58 | 53.17448 | 158.44002 | 133 ft | 21 kts | 60° |
| 2026-04-22 09:58 | 53.17504 | 158.44212 | 133 ft | 19 kts | 66° |
| 2026-04-22 09:59 | 53.17545 | 158.44391 | 134 ft | 14 kts | 69° |
| 2026-04-22 09:59 | 53.17580 | 158.44526 | 135 ft | 11 kts | 65° |
| 2026-04-22 09:59 | 53.17570 | 158.44625 | 135 ft | 9 kts | 150° |
| 2026-04-22 09:59 | 53.17517 | 158.44664 | 135 ft | 16 kts | 156° |
| 2026-04-22 10:00 | 53.17136 | 158.44938 | 132 ft | 102 kts | 156° |
| 2026-04-22 10:00 | 53.16313 | 158.45508 | 200 ft | 142 kts | 157° |
| 2026-04-22 10:00 | 53.15381 | 158.46157 | 626 ft | 147 kts | 157° |
| 2026-04-22 10:00 | 53.14411 | 158.46832 | 1027 ft | 157 kts | 155° |
| 2026-04-22 10:01 | 53.13389 | 158.47590 | 1407 ft | 169 kts | 155° |
| 2026-04-22 10:01 | 53.12260 | 158.48379 | 1822 ft | 184 kts | 156° |
| 2026-04-22 10:01 | 53.11017 | 158.49226 | 2269 ft | 201 kts | 157° |
| 2026-04-22 10:01 | 53.09651 | 158.50160 | 2586 ft | 224 kts | 157° |
| 2026-04-22 10:02 | 53.08148 | 158.51189 | 2839 ft | 249 kts | 157° |
| 2026-04-22 10:02 | 53.06523 | 158.52300 | 3543 ft | 252 kts | 156° |
| 2026-04-22 10:02 | 53.04879 | 158.53423 | 4252 ft | 258 kts | 156° |
| 2026-04-22 10:02 | 53.03206 | 158.54566 | 5000 ft | 263 kts | 155° |
| 2026-04-22 10:03 | 53.01492 | 158.55736 | 5751 ft | 267 kts | 154° |
| 2026-04-22 10:03 | 52.99728 | 158.56763 | 6420 ft | 277 kts | 166° |
| 2026-04-22 10:03 | 52.97788 | 158.56435 | 7117 ft | 285 kts | 197° |
| 2026-04-22 10:03 | 52.96133 | 158.54648 | 7907 ft | 289 kts | 226° |
| 2026-04-22 10:04 | 52.95185 | 158.51777 | 8733 ft | 290 kts | 255° |
| 2026-04-22 10:04 | 52.95161 | 158.48437 | 9521 ft | 289 kts | 285° |
| 2026-04-22 10:04 | 52.96057 | 158.45561 | 10187 ft | 288 kts | 312° |
| 2026-04-22 10:04 | 52.97718 | 158.43556 | 10262 ft | 307 kts | 337° |
| 2026-04-22 10:05 | 52.99785 | 158.42242 | 10361 ft | 329 kts | 342° |
| 2026-04-22 10:05 | 53.02000 | 158.40974 | 10764 ft | 338 kts | 342° |
| 2026-04-22 10:05 | 53.04198 | 158.39565 | 11455 ft | 340 kts | 340° |
| 2026-04-22 10:05 | 53.06410 | 158.38079 | 12035 ft | 344 kts | 340° |
| 2026-04-22 10:06 | 53.08649 | 158.36634 | 12656 ft | 347 kts | 341° |
| 2026-04-22 10:06 | 53.10928 | 158.35198 | 13272 ft | 350 kts | 341° |
| 2026-04-22 10:06 | 53.13100 | 158.33803 | 13845 ft | 353 kts | 340° |
| 2026-04-22 10:06 | 53.15404 | 158.32303 | 14398 ft | 356 kts | 340° |
| 2026-04-22 10:07 | 53.17720 | 158.30803 | 14968 ft | 358 kts | 340° |
| 2026-04-22 10:07 | 53.20056 | 158.29300 | 15517 ft | 361 kts | 340° |
| 2026-04-22 10:07 | 53.22411 | 158.27777 | 16103 ft | 363 kts | 340° |
| 2026-04-22 10:07 | 53.24766 | 158.26247 | 16674 ft | 365 kts | 340° |
| 2026-04-22 10:08 | 53.27151 | 158.24699 | 17265 ft | 368 kts | 340° |
| 2026-04-22 10:08 | 53.29514 | 158.23165 | 17849 ft | 370 kts | 340° |
| 2026-04-22 10:08 | 53.31922 | 158.21600 | 18414 ft | 373 kts | 340° |
| 2026-04-22 10:08 | 53.34354 | 158.20015 | 18963 ft | 374 kts | 340° |
| 2026-04-22 10:09 | 53.36792 | 158.18425 | 19508 ft | 376 kts | 340° |
| 2026-04-22 10:09 | 53.39236 | 158.16829 | 20062 ft | 378 kts | 340° |
| 2026-04-22 10:09 | 53.41690 | 158.15226 | 20624 ft | 380 kts | 340° |
| 2026-04-22 10:09 | 53.44163 | 158.13607 | 21172 ft | 382 kts | 340° |
| 2026-04-22 10:10 | 53.46659 | 158.11972 | 21715 ft | 385 kts | 340° |
| 2026-04-22 10:10 | 53.49130 | 158.10351 | 22249 ft | 387 kts | 340° |
| 2026-04-22 10:10 | 53.51641 | 158.08701 | 22807 ft | 389 kts | 340° |
| 2026-04-22 10:10 | 53.54187 | 158.07026 | 23349 ft | 392 kts | 340° |
| 2026-04-22 10:11 | 53.56702 | 158.05370 | 23815 ft | 394 kts | 340° |
| 2026-04-22 10:11 | 53.59260 | 158.03682 | 24247 ft | 396 kts | 340° |
| 2026-04-22 10:11 | 53.61841 | 158.01978 | 24687 ft | 399 kts | 340° |
| 2026-04-22 10:11 | 53.64437 | 158.00261 | 25111 ft | 401 kts | 340° |
| 2026-04-22 10:12 | 53.66916 | 157.98364 | 25502 ft | 406 kts | 333° |
| 2026-04-22 10:12 | 53.69288 | 157.96024 | 25931 ft | 408 kts | 332° |
| 2026-04-22 10:12 | 53.71737 | 157.93692 | 26362 ft | 410 kts | 333° |
| 2026-04-22 10:12 | 53.74193 | 157.91408 | 26787 ft | 413 kts | 333° |
| 2026-04-22 10:13 | 53.76682 | 157.89024 | 27182 ft | 416 kts | 332° |
| 2026-04-22 10:13 | 53.79009 | 157.86744 | 27598 ft | 418 kts | 332° |
| 2026-04-22 10:13 | 53.81529 | 157.84288 | 28028 ft | 421 kts | 332° |
| 2026-04-22 10:13 | 53.84055 | 157.81835 | 28471 ft | 423 kts | 332° |
| 2026-04-22 10:14 | 53.86498 | 157.79451 | 28906 ft | 426 kts | 332° |
| 2026-04-22 10:14 | 53.88997 | 157.77000 | 29341 ft | 429 kts | 332° |
| 2026-04-22 10:14 | 53.91525 | 157.74521 | 29753 ft | 431 kts | 332° |
| 2026-04-22 10:14 | 53.94108 | 157.71992 | 30160 ft | 434 kts | 332° |
| 2026-04-22 10:15 | 53.96671 | 157.69477 | 30479 ft | 437 kts | 332° |
| 2026-04-22 10:15 | 53.99151 | 157.67036 | 30786 ft | 440 kts | 332° |
| 2026-04-22 10:15 | 54.01832 | 157.64392 | 31209 ft | 441 kts | 331° |
| 2026-04-22 10:15 | 54.04358 | 157.61899 | 31762 ft | 439 kts | 331° |
| 2026-04-22 10:16 | 54.06945 | 157.59346 | 32215 ft | 440 kts | 331° |
| 2026-04-22 10:16 | 54.09471 | 157.56848 | 32663 ft | 440 kts | 331° |
| 2026-04-22 10:16 | 54.12046 | 157.54296 | 33133 ft | 440 kts | 331° |
| 2026-04-22 10:16 | 54.14663 | 157.51717 | 33616 ft | 440 kts | 331° |
| 2026-04-22 10:17 | 54.17214 | 157.49216 | 34048 ft | 440 kts | 331° |
| 2026-04-22 10:17 | 54.19823 | 157.46642 | 34414 ft | 441 kts | 330° |
| 2026-04-22 10:17 | 54.22359 | 157.44124 | 34761 ft | 442 kts | 330° |
| 2026-04-22 10:17 | 54.24950 | 157.41554 | 35122 ft | 442 kts | 330° |
| 2026-04-22 10:18 | 54.27484 | 157.39045 | 35473 ft | 443 kts | 330° |
| 2026-04-22 10:18 | 54.30161 | 157.36390 | 35842 ft | 444 kts | 330° |
| 2026-04-22 10:18 | 54.32754 | 157.33807 | 36191 ft | 445 kts | 330° |
| 2026-04-22 10:18 | 54.35316 | 157.31252 | 36555 ft | 446 kts | 330° |
| 2026-04-22 10:19 | 54.37906 | 157.28667 | 36917 ft | 447 kts | 330° |
| 2026-04-22 10:19 | 54.40465 | 157.26113 | 37277 ft | 448 kts | 330° |
| 2026-04-22 10:19 | 54.43001 | 157.23575 | 37625 ft | 449 kts | 330° |
| 2026-04-22 10:19 | 54.45615 | 157.20954 | 37996 ft | 450 kts | 330° |
| 2026-04-22 10:20 | 54.48257 | 157.18302 | 38362 ft | 451 kts | 329° |
| 2026-04-22 10:20 | 54.50935 | 157.15609 | 38714 ft | 452 kts | 329° |
| 2026-04-22 10:20 | 54.53476 | 157.13052 | 38993 ft | 452 kts | 329° |
| 2026-04-22 10:20 | 54.56116 | 157.10390 | 39305 ft | 452 kts | 329° |
| 2026-04-22 10:21 | 54.58797 | 157.07682 | 39619 ft | 452 kts | 329° |
| 2026-04-22 10:21 | 54.61483 | 157.04965 | 39924 ft | 453 kts | 329° |
| 2026-04-22 10:21 | 54.63989 | 157.02427 | 40210 ft | 453 kts | 329° |
| 2026-04-22 10:21 | 54.66717 | 156.99660 | 40535 ft | 454 kts | 329° |
| 2026-04-22 10:22 | 54.69313 | 156.97023 | 40837 ft | 454 kts | 329° |
| 2026-04-22 10:22 | 54.72003 | 156.94286 | 41147 ft | 454 kts | 329° |
| 2026-04-22 10:22 | 54.74654 | 156.91585 | 41441 ft | 455 kts | 329° |
| 2026-04-22 10:22 | 54.77256 | 156.88930 | 41738 ft | 455 kts | 329° |
| 2026-04-22 10:23 | 54.79944 | 156.86183 | 42047 ft | 455 kts | 329° |
| 2026-04-22 10:23 | 54.82658 | 156.83404 | 42331 ft | 455 kts | 329° |
| 2026-04-22 10:23 | 54.85255 | 156.80742 | 42610 ft | 456 kts | 329° |
| 2026-04-22 10:23 | 54.87910 | 156.78016 | 42895 ft | 456 kts | 329° |
| 2026-04-22 10:24 | 54.90558 | 156.75295 | 43168 ft | 456 kts | 329° |
| 2026-04-22 10:24 | 54.93297 | 156.72478 | 43446 ft | 456 kts | 329° |
| 2026-04-22 10:24 | 54.95900 | 156.69796 | 43663 ft | 456 kts | 329° |
| 2026-04-22 10:24 | 54.98503 | 156.67107 | 43809 ft | 456 kts | 329° |
| 2026-04-22 10:25 | 55.01284 | 156.64227 | 43931 ft | 457 kts | 329° |
| 2026-04-22 10:25 | 55.03934 | 156.61472 | 44057 ft | 457 kts | 329° |
| 2026-04-22 10:25 | 55.06570 | 156.58730 | 44190 ft | 457 kts | 329° |
| 2026-04-22 10:25 | 55.09225 | 156.55968 | 44327 ft | 457 kts | 329° |
| 2026-04-22 10:26 | 55.11920 | 156.53159 | 44447 ft | 457 kts | 329° |
| 2026-04-22 10:26 | 55.14525 | 156.50437 | 44572 ft | 457 kts | 329° |
| 2026-04-22 10:26 | 55.17132 | 156.47714 | 44689 ft | 457 kts | 329° |
| 2026-04-22 10:26 | 55.19780 | 156.44955 | 44797 ft | 457 kts | 329° |
| 2026-04-22 10:27 | 55.22471 | 156.42144 | 44926 ft | 457 kts | 329° |
| 2026-04-22 10:27 | 55.25172 | 156.39310 | 45059 ft | 458 kts | 329° |
| 2026-04-22 10:27 | 55.27769 | 156.36581 | 45255 ft | 458 kts | 329° |
| 2026-04-22 10:27 | 55.30418 | 156.33798 | 45453 ft | 457 kts | 329° |
| 2026-04-22 10:28 | 55.33127 | 156.30950 | 45616 ft | 457 kts | 329° |
| 2026-04-22 10:28 | 55.35777 | 156.28155 | 45764 ft | 457 kts | 329° |
| 2026-04-22 10:28 | 55.38386 | 156.25397 | 45882 ft | 457 kts | 329° |
| 2026-04-22 10:28 | 55.40992 | 156.22640 | 46000 ft | 457 kts | 328° |
| 2026-04-22 10:29 | 55.46347 | 156.16923 | 46161 ft | 457 kts | 328° |
| 2026-04-22 10:29 | 55.51546 | 156.11367 | 46286 ft | 457 kts | 328° |
| 2026-04-22 10:30 | 55.56873 | 156.05652 | 46406 ft | 457 kts | 328° |
| 2026-04-22 10:30 | 55.62280 | 155.99831 | 46519 ft | 457 kts | 328° |
| 2026-04-22 10:31 | 55.67518 | 155.94176 | 46623 ft | 457 kts | 328° |
| 2026-04-22 10:31 | 55.72832 | 155.88418 | 46721 ft | 457 kts | 328° |
| 2026-04-22 10:32 | 55.78158 | 155.82631 | 46809 ft | 457 kts | 328° |
| 2026-04-22 10:32 | 55.83412 | 155.76902 | 46916 ft | 457 kts | 328° |
| 2026-04-22 10:33 | 55.88703 | 155.71115 | 46928 ft | 456 kts | 328° |
| 2026-04-22 10:33 | 55.93908 | 155.65402 | 46929 ft | 455 kts | 328° |
| 2026-04-22 10:34 | 55.99152 | 155.59629 | 46927 ft | 455 kts | 328° |
| 2026-04-22 10:34 | 56.04382 | 155.53854 | 46929 ft | 454 kts | 328° |
| 2026-04-22 10:35 | 56.09576 | 155.48098 | 46933 ft | 454 kts | 328° |
| 2026-04-22 10:35 | 56.14789 | 155.42304 | 46929 ft | 453 kts | 328° |
| 2026-04-22 10:36 | 56.20010 | 155.36491 | 46934 ft | 453 kts | 328° |
| 2026-04-22 10:36 | 56.25298 | 155.30759 | 46930 ft | 453 kts | 329° |
| 2026-04-22 10:37 | 56.33206 | 155.22027 | 46929 ft | 453 kts | 328° |
| 2026-04-22 10:38 | 56.38454 | 155.16258 | 46936 ft | 453 kts | 328° |
| 2026-04-22 10:38 | 56.43692 | 155.10438 | 46934 ft | 453 kts | 328° |
| 2026-04-22 10:39 | 56.48940 | 155.04616 | 46939 ft | 454 kts | 328° |
| 2026-04-22 10:39 | 56.54197 | 154.98748 | 46947 ft | 454 kts | 328° |
| 2026-04-22 10:40 | 56.58555 | 154.93877 | 46962 ft | 455 kts | 328° |
| 2026-04-22 10:40 | 56.63856 | 154.87929 | 46997 ft | 454 kts | 328° |
| 2026-04-22 10:41 | 56.69960 | 154.81059 | 47057 ft | 454 kts | 328° |
| 2026-04-22 10:41 | 56.75178 | 154.75160 | 47053 ft | 456 kts | 328° |
| 2026-04-22 10:42 | 56.79540 | 154.70218 | 47062 ft | 457 kts | 328° |
| 2026-04-22 10:42 | 56.84881 | 154.64147 | 47060 ft | 459 kts | 328° |
| 2026-04-22 10:43 | 56.90135 | 154.58153 | 47074 ft | 461 kts | 328° |
| 2026-04-22 10:43 | 56.95470 | 154.52047 | 47075 ft | 462 kts | 328° |
| 2026-04-22 10:44 | 57.00785 | 154.45942 | 47081 ft | 464 kts | 328° |
| 2026-04-22 10:44 | 57.06139 | 154.39771 | 47082 ft | 465 kts | 328° |
| 2026-04-22 10:45 | 57.11509 | 154.33563 | 47089 ft | 467 kts | 328° |
| 2026-04-22 10:45 | 57.16856 | 154.27357 | 47094 ft | 468 kts | 328° |
| 2026-04-22 10:46 | 57.22157 | 154.21173 | 47096 ft | 470 kts | 327° |
| 2026-04-22 10:46 | 57.27531 | 154.14750 | 47094 ft | 471 kts | 327° |
| 2026-04-22 10:47 | 57.32994 | 154.08275 | 47103 ft | 473 kts | 327° |
| 2026-04-22 10:47 | 57.38363 | 154.01843 | 47105 ft | 474 kts | 327° |
| 2026-04-22 10:48 | 57.43814 | 153.95314 | 47110 ft | 475 kts | 327° |
| 2026-04-22 10:48 | 57.49129 | 153.88917 | 47109 ft | 477 kts | 327° |
| 2026-04-22 10:49 | 57.54664 | 153.82231 | 47115 ft | 478 kts | 327° |
| 2026-04-22 10:49 | 57.60123 | 153.75616 | 47123 ft | 479 kts | 327° |
| 2026-04-22 10:50 | 57.65587 | 153.68966 | 47129 ft | 480 kts | 327° |
| 2026-04-22 10:50 | 57.71029 | 153.62325 | 47132 ft | 482 kts | 327° |
| 2026-04-22 10:51 | 57.76518 | 153.55594 | 47136 ft | 483 kts | 327° |
| 2026-04-22 10:51 | 57.82041 | 153.48808 | 47137 ft | 484 kts | 327° |
| 2026-04-22 10:52 | 57.87512 | 153.42104 | 47142 ft | 485 kts | 327° |
| 2026-04-22 10:52 | 57.93005 | 153.35322 | 47145 ft | 486 kts | 327° |
| 2026-04-22 10:53 | 57.98484 | 153.28546 | 47152 ft | 486 kts | 327° |
| 2026-04-22 10:53 | 58.04041 | 153.21644 | 47156 ft | 487 kts | 327° |
| 2026-04-22 10:54 | 58.09599 | 153.14713 | 47157 ft | 487 kts | 327° |
| 2026-04-22 10:54 | 58.15141 | 153.07778 | 47159 ft | 488 kts | 326° |
| 2026-04-22 10:55 | 58.20583 | 153.00761 | 47159 ft | 488 kts | 324° |
| 2026-04-22 10:55 | 58.25971 | 152.93577 | 47163 ft | 488 kts | 325° |
| 2026-04-22 10:56 | 58.31449 | 152.86250 | 47160 ft | 489 kts | 324° |
| 2026-04-22 10:56 | 58.36867 | 152.78963 | 47167 ft | 489 kts | 325° |
| 2026-04-22 10:57 | 58.42257 | 152.71713 | 47167 ft | 489 kts | 324° |
| 2026-04-22 10:57 | 58.47737 | 152.64280 | 47169 ft | 490 kts | 324° |
| 2026-04-22 10:58 | 58.53174 | 152.56907 | 47171 ft | 490 kts | 324° |
| 2026-04-22 10:58 | 58.58580 | 152.49611 | 47155 ft | 490 kts | 326° |
| 2026-04-22 10:59 | 58.64167 | 152.42520 | 47177 ft | 490 kts | 326° |
| 2026-04-22 10:59 | 58.69601 | 152.35490 | 47170 ft | 490 kts | 326° |
| 2026-04-22 11:00 | 58.75218 | 152.28292 | 47176 ft | 491 kts | 326° |
| 2026-04-22 11:00 | 58.80725 | 152.21089 | 47177 ft | 491 kts | 326° |
| 2026-04-22 11:01 | 58.86178 | 152.13998 | 47177 ft | 491 kts | 326° |
| 2026-04-22 11:01 | 58.91712 | 152.06732 | 47208 ft | 494 kts | 326° |
| 2026-04-22 11:02 | 58.97239 | 151.99466 | 47174 ft | 495 kts | 326° |
| 2026-04-22 11:02 | 59.02834 | 151.92076 | 47183 ft | 496 kts | 326° |
| 2026-04-22 11:03 | 59.08378 | 151.84721 | 47186 ft | 496 kts | 326° |
| 2026-04-22 11:03 | 59.13939 | 151.77376 | 47179 ft | 497 kts | 327° |
| 2026-04-22 11:04 | 59.19550 | 151.69981 | 47183 ft | 497 kts | 326° |
| 2026-04-22 11:04 | 59.25095 | 151.62595 | 47183 ft | 497 kts | 326° |
| 2026-04-22 11:05 | 59.30740 | 151.55088 | 47183 ft | 498 kts | 326° |
| 2026-04-22 11:05 | 59.36333 | 151.47608 | 47182 ft | 498 kts | 326° |
| 2026-04-22 11:06 | 59.41944 | 151.40121 | 47180 ft | 498 kts | 326° |
| 2026-04-22 11:06 | 59.47519 | 151.32613 | 47182 ft | 498 kts | 326° |
| 2026-04-22 11:07 | 59.53026 | 151.25195 | 47177 ft | 498 kts | 326° |
| 2026-04-22 11:07 | 59.58670 | 151.17540 | 47173 ft | 498 kts | 326° |
| 2026-04-22 11:08 | 59.64218 | 151.09989 | 47172 ft | 498 kts | 326° |
| 2026-04-22 11:08 | 59.69714 | 151.02188 | 47172 ft | 499 kts | 324° |
| 2026-04-22 11:09 | 59.75262 | 150.94424 | 47162 ft | 499 kts | 325° |
| 2026-04-22 11:09 | 59.80746 | 150.86648 | 47157 ft | 499 kts | 324° |
| 2026-04-22 11:10 | 59.86272 | 150.78804 | 47153 ft | 499 kts | 325° |
| 2026-04-22 11:10 | 59.91828 | 150.70939 | 47140 ft | 499 kts | 326° |
| 2026-04-22 11:11 | 59.97445 | 150.63344 | 47159 ft | 499 kts | 326° |
| 2026-04-22 11:11 | 60.02877 | 150.55909 | 47158 ft | 499 kts | 326° |
| 2026-04-22 11:12 | 60.08565 | 150.48166 | 47159 ft | 499 kts | 326° |
| 2026-04-22 11:12 | 60.14165 | 150.40446 | 47165 ft | 499 kts | 326° |
| 2026-04-22 11:13 | 60.19689 | 150.32855 | 47170 ft | 499 kts | 326° |
| 2026-04-22 11:13 | 60.25239 | 150.25160 | 47173 ft | 499 kts | 326° |
| 2026-04-22 11:14 | 60.30703 | 150.17578 | 47181 ft | 499 kts | 326° |
| 2026-04-22 11:14 | 60.36258 | 150.09829 | 47192 ft | 499 kts | 326° |
| 2026-04-22 11:15 | 60.41876 | 150.01969 | 47198 ft | 499 kts | 326° |
| 2026-04-22 11:15 | 60.47539 | 149.94008 | 47203 ft | 499 kts | 326° |
| 2026-04-22 11:16 | 60.53084 | 149.86190 | 47208 ft | 499 kts | 326° |
| 2026-04-22 11:16 | 60.58612 | 149.78355 | 47211 ft | 499 kts | 325° |
| 2026-04-22 11:17 | 60.64162 | 149.70460 | 47205 ft | 499 kts | 325° |
| 2026-04-22 11:17 | 60.69739 | 149.62489 | 47208 ft | 499 kts | 325° |
| 2026-04-22 11:18 | 60.75269 | 149.54553 | 47206 ft | 499 kts | 325° |
| 2026-04-22 11:18 | 60.80777 | 149.46615 | 47198 ft | 500 kts | 325° |
| 2026-04-22 11:19 | 60.86334 | 149.38570 | 47202 ft | 500 kts | 325° |
| 2026-04-22 11:19 | 60.91922 | 149.30447 | 47199 ft | 500 kts | 325° |
| 2026-04-22 11:20 | 60.97362 | 149.22504 | 47197 ft | 500 kts | 324° |
| 2026-04-22 11:20 | 61.02955 | 149.14301 | 47204 ft | 501 kts | 324° |
| 2026-04-22 11:21 | 61.08507 | 149.06124 | 47204 ft | 501 kts | 324° |
| 2026-04-22 11:21 | 61.13931 | 148.98099 | 47205 ft | 502 kts | 324° |
| 2026-04-22 11:22 | 61.19557 | 148.89748 | 47209 ft | 502 kts | 324° |
| 2026-04-22 11:22 | 61.24970 | 148.81690 | 47209 ft | 503 kts | 324° |
| 2026-04-22 11:23 | 61.30452 | 148.73481 | 47213 ft | 504 kts | 324° |
| 2026-04-22 11:23 | 61.36035 | 148.65092 | 47234 ft | 504 kts | 324° |
| 2026-04-22 11:24 | 61.41596 | 148.56695 | 47243 ft | 505 kts | 324° |
| 2026-04-22 11:24 | 61.47147 | 148.48277 | 47241 ft | 506 kts | 324° |
| 2026-04-22 11:25 | 61.52767 | 148.39713 | 47246 ft | 506 kts | 324° |
| 2026-04-22 11:25 | 61.58269 | 148.31249 | 47254 ft | 508 kts | 323° |
| 2026-04-22 11:26 | 61.63843 | 148.22648 | 47250 ft | 508 kts | 323° |
| 2026-04-22 11:26 | 61.69428 | 148.13988 | 47249 ft | 509 kts | 323° |
| 2026-04-22 11:27 | 61.74984 | 148.05331 | 47247 ft | 510 kts | 323° |
| 2026-04-22 11:27 | 61.80527 | 147.96660 | 47250 ft | 511 kts | 323° |
| 2026-04-22 11:28 | 61.86128 | 147.87852 | 47258 ft | 512 kts | 323° |
| 2026-04-22 11:28 | 61.90795 | 147.80485 | 47258 ft | 513 kts | 323° |
| 2026-04-22 11:29 | 61.97200 | 147.70323 | 47255 ft | 515 kts | 323° |
| 2026-04-22 11:29 | 62.02675 | 147.61597 | 47259 ft | 516 kts | 323° |
| 2026-04-22 11:30 | 62.08332 | 147.52535 | 47255 ft | 517 kts | 323° |
| 2026-04-22 11:30 | 62.13915 | 147.43552 | 47259 ft | 518 kts | 323° |
| 2026-04-22 11:31 | 62.19507 | 147.34510 | 47270 ft | 519 kts | 323° |
| 2026-04-22 11:31 | 62.24265 | 147.26782 | 47266 ft | 520 kts | 322° |
| 2026-04-22 11:32 | 62.29892 | 147.17604 | 47272 ft | 521 kts | 322° |
| 2026-04-22 11:32 | 62.35450 | 147.08494 | 47269 ft | 521 kts | 322° |
| 2026-04-22 11:33 | 62.40950 | 146.99435 | 47273 ft | 521 kts | 322° |
| 2026-04-22 11:33 | 62.46606 | 146.90076 | 47274 ft | 521 kts | 322° |
| 2026-04-22 11:34 | 62.52115 | 146.80915 | 47273 ft | 520 kts | 322° |
| 2026-04-22 11:34 | 62.57727 | 146.71538 | 47273 ft | 520 kts | 322° |
| 2026-04-22 11:35 | 62.63303 | 146.62174 | 47267 ft | 520 kts | 322° |
| 2026-04-22 11:35 | 62.68786 | 146.52927 | 47265 ft | 520 kts | 322° |
| 2026-04-22 11:36 | 62.74422 | 146.43413 | 47263 ft | 520 kts | 322° |
| 2026-04-22 11:36 | 62.79949 | 146.34013 | 47256 ft | 520 kts | 322° |
| 2026-04-22 11:37 | 62.85577 | 146.24409 | 47255 ft | 520 kts | 321° |
| 2026-04-22 11:37 | 62.91116 | 146.14901 | 47253 ft | 520 kts | 321° |
| 2026-04-22 11:38 | 62.96635 | 146.05385 | 47252 ft | 520 kts | 321° |
| 2026-04-22 11:38 | 63.05009 | 145.90854 | 47255 ft | 520 kts | 321° |
| 2026-04-22 11:39 | 63.10491 | 145.81316 | 47261 ft | 519 kts | 321° |
| 2026-04-22 11:39 | 63.16047 | 145.71582 | 47261 ft | 519 kts | 321° |
| 2026-04-22 11:40 | 63.21556 | 145.61895 | 47262 ft | 519 kts | 321° |
| 2026-04-22 11:40 | 63.27052 | 145.52176 | 47270 ft | 519 kts | 321° |
| 2026-04-22 11:41 | 63.32513 | 145.42471 | 47265 ft | 519 kts | 321° |
| 2026-04-22 11:41 | 63.38030 | 145.32573 | 47274 ft | 519 kts | 320° |
| 2026-04-22 11:42 | 63.43586 | 145.22535 | 47277 ft | 519 kts | 321° |
| 2026-04-22 11:42 | 63.49026 | 145.12683 | 47273 ft | 519 kts | 320° |
| 2026-04-22 11:43 | 63.54477 | 145.02736 | 47272 ft | 519 kts | 320° |
| 2026-04-22 11:43 | 63.59838 | 144.92925 | 47275 ft | 520 kts | 320° |
| 2026-04-22 11:44 | 63.65218 | 144.83010 | 47269 ft | 520 kts | 320° |
| 2026-04-22 11:44 | 63.70719 | 144.72836 | 47273 ft | 520 kts | 320° |
| 2026-04-22 11:45 | 63.76167 | 144.62696 | 47274 ft | 520 kts | 320° |
| 2026-04-22 11:45 | 63.81592 | 144.52556 | 47276 ft | 520 kts | 320° |
| 2026-04-22 11:46 | 63.87011 | 144.42369 | 47273 ft | 520 kts | 320° |
| 2026-04-22 11:46 | 63.92397 | 144.32193 | 47275 ft | 520 kts | 320° |
| 2026-04-22 11:47 | 63.97822 | 144.21891 | 47268 ft | 520 kts | 319° |
| 2026-04-22 11:47 | 64.03280 | 144.11471 | 47272 ft | 520 kts | 319° |
| 2026-04-22 11:48 | 64.08615 | 144.01234 | 47267 ft | 520 kts | 319° |
| 2026-04-22 11:48 | 64.13961 | 143.90960 | 47269 ft | 520 kts | 319° |
| 2026-04-22 11:49 | 64.19327 | 143.80577 | 47270 ft | 520 kts | 319° |
| 2026-04-22 11:49 | 64.24720 | 143.70094 | 47269 ft | 520 kts | 319° |
| 2026-04-22 11:50 | 64.30140 | 143.59514 | 47267 ft | 520 kts | 319° |
| 2026-04-22 11:50 | 64.35460 | 143.49092 | 47266 ft | 520 kts | 319° |
| 2026-04-22 11:51 | 64.40893 | 143.38379 | 47268 ft | 520 kts | 319° |
| 2026-04-22 11:51 | 64.46167 | 143.27932 | 47268 ft | 520 kts | 319° |
| 2026-04-22 11:52 | 64.51482 | 143.17341 | 47267 ft | 520 kts | 319° |
| 2026-04-22 11:52 | 64.56765 | 143.06395 | 47272 ft | 519 kts | 315° |
| 2026-04-22 11:53 | 64.61685 | 142.95078 | 47280 ft | 519 kts | 315° |
| 2026-04-22 11:53 | 64.66770 | 142.83619 | 47283 ft | 520 kts | 315° |
| 2026-04-22 11:54 | 64.71744 | 142.72157 | 47294 ft | 520 kts | 315° |
| 2026-04-22 11:54 | 64.76796 | 142.60563 | 47292 ft | 520 kts | 315° |
| 2026-04-22 11:55 | 64.81825 | 142.48906 | 47291 ft | 520 kts | 314° |
| 2026-04-22 11:55 | 64.86886 | 142.37125 | 47290 ft | 520 kts | 315° |
| 2026-04-22 11:56 | 64.91911 | 142.25370 | 47280 ft | 520 kts | 314° |
| 2026-04-22 11:56 | 64.96855 | 142.13720 | 47280 ft | 520 kts | 314° |
| 2026-04-22 11:57 | 65.01867 | 142.01877 | 47278 ft | 520 kts | 314° |
| 2026-04-22 11:57 | 65.06890 | 141.90021 | 47270 ft | 520 kts | 314° |
| 2026-04-22 11:58 | 65.11847 | 141.78211 | 47273 ft | 520 kts | 314° |
| 2026-04-22 11:58 | 65.16793 | 141.66385 | 47260 ft | 520 kts | 314° |
| 2026-04-22 11:59 | 65.21821 | 141.54283 | 47268 ft | 520 kts | 314° |
| 2026-04-22 11:59 | 65.26744 | 141.42368 | 47270 ft | 520 kts | 314° |
| 2026-04-22 12:00 | 65.31690 | 141.30334 | 47266 ft | 520 kts | 314° |
| 2026-04-22 12:00 | 65.36648 | 141.18203 | 47268 ft | 520 kts | 313° |
| 2026-04-22 12:01 | 65.41562 | 141.06113 | 47276 ft | 520 kts | 313° |
| 2026-04-22 12:01 | 65.46477 | 140.93948 | 47268 ft | 520 kts | 313° |
| 2026-04-22 12:02 | 65.51377 | 140.81753 | 47267 ft | 520 kts | 313° |
| 2026-04-22 12:02 | 65.56295 | 140.69437 | 47259 ft | 520 kts | 313° |
| 2026-04-22 12:03 | 65.61245 | 140.56976 | 47266 ft | 520 kts | 313° |
| 2026-04-22 12:03 | 65.66060 | 140.44779 | 47254 ft | 520 kts | 313° |
| 2026-04-22 12:04 | 65.71005 | 140.32181 | 47254 ft | 520 kts | 313° |
| 2026-04-22 12:04 | 65.75839 | 140.19792 | 47252 ft | 520 kts | 312° |
| 2026-04-22 12:05 | 65.80712 | 140.07230 | 47252 ft | 520 kts | 312° |
| 2026-04-22 12:05 | 65.85490 | 139.94841 | 47248 ft | 520 kts | 312° |
| 2026-04-22 12:06 | 65.90292 | 139.82319 | 47247 ft | 520 kts | 312° |
| 2026-04-22 12:06 | 65.95133 | 139.69618 | 47248 ft | 520 kts | 312° |
| 2026-04-22 12:07 | 65.99959 | 139.56883 | 47252 ft | 520 kts | 312° |
| 2026-04-22 12:07 | 66.04714 | 139.44257 | 47250 ft | 520 kts | 311° |
| 2026-04-22 12:08 | 66.09527 | 139.31403 | 47254 ft | 520 kts | 311° |
| 2026-04-22 12:08 | 66.14295 | 139.18593 | 47256 ft | 521 kts | 311° |
| 2026-04-22 12:09 | 66.19101 | 139.05533 | 47262 ft | 520 kts | 311° |
| 2026-04-22 12:09 | 66.23825 | 138.92464 | 47258 ft | 520 kts | 311° |
| 2026-04-22 12:10 | 66.28570 | 138.79392 | 47256 ft | 520 kts | 310° |
| 2026-04-22 12:10 | 66.33264 | 138.66275 | 47264 ft | 520 kts | 310° |
| 2026-04-22 12:11 | 66.37964 | 138.53143 | 47259 ft | 520 kts | 310° |
| 2026-04-22 12:11 | 66.42715 | 138.39724 | 47258 ft | 520 kts | 310° |
| 2026-04-22 12:12 | 66.47324 | 138.26672 | 47261 ft | 521 kts | 310° |
| 2026-04-22 12:12 | 66.51990 | 138.13345 | 47257 ft | 521 kts | 310° |
| 2026-04-22 12:13 | 66.56611 | 138.00083 | 47254 ft | 521 kts | 310° |
| 2026-04-22 12:13 | 66.61282 | 137.86586 | 47257 ft | 521 kts | 309° |
| 2026-04-22 12:14 | 66.65961 | 137.72983 | 47257 ft | 521 kts | 309° |
| 2026-04-22 12:14 | 66.70518 | 137.59653 | 47249 ft | 522 kts | 309° |
| 2026-04-22 12:15 | 66.75162 | 137.45989 | 47250 ft | 522 kts | 309° |
| 2026-04-22 12:15 | 66.79698 | 137.32657 | 47252 ft | 522 kts | 309° |
| 2026-04-22 12:16 | 66.84313 | 137.18943 | 47252 ft | 522 kts | 309° |
| 2026-04-22 12:16 | 66.88109 | 137.07630 | 47253 ft | 522 kts | 309° |
| 2026-04-22 12:17 | 66.93362 | 136.91855 | 47251 ft | 522 kts | 309° |
| 2026-04-22 12:17 | 66.97903 | 136.78132 | 47248 ft | 522 kts | 309° |
| 2026-04-22 12:18 | 67.02473 | 136.64231 | 47254 ft | 522 kts | 308° |
| 2026-04-22 12:18 | 67.07041 | 136.50246 | 47256 ft | 522 kts | 308° |
| 2026-04-22 12:19 | 67.10872 | 136.38450 | 47252 ft | 522 kts | 308° |
| 2026-04-22 12:19 | 67.15363 | 136.24531 | 47249 ft | 522 kts | 308° |
| 2026-04-22 12:20 | 67.19931 | 136.10292 | 47253 ft | 522 kts | 308° |
| 2026-04-22 12:20 | 67.24374 | 135.96693 | 47248 ft | 522 kts | 309° |
| 2026-04-22 12:21 | 67.28892 | 135.82702 | 47247 ft | 522 kts | 308° |
| 2026-04-22 12:21 | 67.33481 | 135.68385 | 47244 ft | 523 kts | 308° |
| 2026-04-22 12:22 | 67.38023 | 135.54175 | 47247 ft | 523 kts | 308° |
| 2026-04-22 12:22 | 67.42443 | 135.40184 | 47240 ft | 523 kts | 308° |
| 2026-04-22 12:23 | 67.46958 | 135.25878 | 47253 ft | 523 kts | 307° |
| 2026-04-22 12:23 | 67.51379 | 135.11706 | 47242 ft | 523 kts | 307° |
| 2026-04-22 12:24 | 67.55950 | 134.97015 | 47252 ft | 524 kts | 307° |
| 2026-04-22 12:24 | 67.60424 | 134.82495 | 47256 ft | 524 kts | 307° |
| 2026-04-22 12:25 | 67.64931 | 134.67845 | 47247 ft | 524 kts | 308° |
| 2026-04-22 12:25 | 67.69525 | 134.53738 | 47252 ft | 524 kts | 308° |
| 2026-04-22 12:26 | 67.74153 | 134.39242 | 47253 ft | 524 kts | 308° |
| 2026-04-22 12:26 | 67.78732 | 134.24993 | 47251 ft | 525 kts | 308° |
| 2026-04-22 12:27 | 67.83321 | 134.10466 | 47252 ft | 525 kts | 308° |
| 2026-04-22 12:27 | 67.87913 | 133.95941 | 47252 ft | 525 kts | 308° |
| 2026-04-22 12:28 | 67.92503 | 133.81249 | 47248 ft | 525 kts | 307° |
| 2026-04-22 12:28 | 67.97015 | 133.66787 | 47245 ft | 525 kts | 308° |
| 2026-04-22 12:29 | 68.01671 | 133.52283 | 47249 ft | 526 kts | 308° |
| 2026-04-22 12:29 | 68.06315 | 133.37414 | 47244 ft | 526 kts | 308° |
| 2026-04-22 12:30 | 68.13177 | 133.15441 | 47252 ft | 525 kts | 307° |
| 2026-04-22 12:31 | 68.17618 | 133.00370 | 47247 ft | 526 kts | 307° |
| 2026-04-22 12:31 | 68.22141 | 132.85481 | 47250 ft | 526 kts | 307° |
| 2026-04-22 12:32 | 68.26620 | 132.70247 | 47253 ft | 525 kts | 306° |
| 2026-04-22 12:32 | 68.33310 | 132.47641 | 47256 ft | 526 kts | 306° |
| 2026-04-22 12:33 | 68.37734 | 132.32383 | 47250 ft | 526 kts | 306° |
| 2026-04-22 12:33 | 68.42218 | 132.16992 | 47256 ft | 526 kts | 306° |
| 2026-04-22 12:34 | 68.46555 | 132.01860 | 47249 ft | 526 kts | 306° |
| 2026-04-22 12:34 | 68.51005 | 131.86330 | 47259 ft | 526 kts | 306° |
| 2026-04-22 12:35 | 68.55377 | 131.70893 | 47261 ft | 526 kts | 305° |
| 2026-04-22 12:35 | 68.59641 | 131.55773 | 47264 ft | 527 kts | 305° |
| 2026-04-22 12:36 | 68.63904 | 131.40531 | 47270 ft | 527 kts | 305° |
| 2026-04-22 12:36 | 68.68254 | 131.24870 | 47269 ft | 527 kts | 305° |
| 2026-04-22 12:37 | 68.72596 | 131.09127 | 47273 ft | 527 kts | 304° |
| 2026-04-22 12:37 | 68.76920 | 130.93330 | 47275 ft | 527 kts | 304° |
| 2026-04-22 12:38 | 68.81197 | 130.77599 | 47270 ft | 527 kts | 304° |
| 2026-04-22 12:38 | 68.85490 | 130.61685 | 47276 ft | 527 kts | 304° |
| 2026-04-22 12:39 | 68.91691 | 130.38494 | 47278 ft | 527 kts | 304° |
| 2026-04-22 12:40 | 68.95935 | 130.22477 | 47275 ft | 526 kts | 304° |
| 2026-04-22 12:40 | 69.00192 | 130.06298 | 47274 ft | 522 kts | 303° |
| 2026-04-22 12:41 | 69.04364 | 129.90314 | 47275 ft | 518 kts | 303° |
| 2026-04-22 12:41 | 69.08492 | 129.74386 | 47271 ft | 516 kts | 303° |
| 2026-04-22 12:42 | 69.12589 | 129.58464 | 47279 ft | 514 kts | 303° |
| 2026-04-22 12:42 | 69.16648 | 129.42571 | 47274 ft | 513 kts | 303° |
| 2026-04-22 12:43 | 69.20691 | 129.26620 | 47271 ft | 512 kts | 303° |
| 2026-04-22 12:43 | 69.24770 | 129.10413 | 47265 ft | 511 kts | 302° |
| 2026-04-22 12:44 | 69.28684 | 128.94772 | 47261 ft | 510 kts | 303° |
| 2026-04-22 12:44 | 69.32712 | 128.78868 | 47255 ft | 510 kts | 303° |
| 2026-04-22 12:45 | 69.36748 | 128.62620 | 47249 ft | 510 kts | 302° |
| 2026-04-22 12:45 | 69.40724 | 128.46615 | 47249 ft | 510 kts | 302° |
| 2026-04-22 12:46 | 69.44699 | 128.30430 | 47251 ft | 510 kts | 302° |
| 2026-04-22 12:46 | 69.48613 | 128.14398 | 47240 ft | 510 kts | 302° |
| 2026-04-22 12:47 | 69.52591 | 127.97982 | 47241 ft | 509 kts | 302° |
| 2026-04-22 12:47 | 69.56517 | 127.81638 | 47234 ft | 509 kts | 302° |
| 2026-04-22 12:48 | 69.60389 | 127.65425 | 47234 ft | 509 kts | 302° |
| 2026-04-22 12:48 | 69.64299 | 127.48900 | 47226 ft | 510 kts | 302° |
| 2026-04-22 12:49 | 69.68176 | 127.32416 | 47217 ft | 510 kts | 301° |
| 2026-04-22 12:49 | 69.72058 | 127.15761 | 47218 ft | 510 kts | 301° |
| 2026-04-22 12:50 | 69.75872 | 126.99287 | 47219 ft | 510 kts | 301° |
| 2026-04-22 12:50 | 69.79715 | 126.82548 | 47216 ft | 510 kts | 301° |
| 2026-04-22 12:51 | 69.83516 | 126.65865 | 47209 ft | 510 kts | 301° |
| 2026-04-22 12:51 | 69.87335 | 126.48978 | 47208 ft | 510 kts | 301° |
| 2026-04-22 12:52 | 69.91040 | 126.32384 | 47207 ft | 510 kts | 300° |
| 2026-04-22 12:52 | 69.94789 | 126.15256 | 47207 ft | 510 kts | 300° |
| 2026-04-22 12:53 | 69.98504 | 125.98321 | 47197 ft | 511 kts | 300° |
| 2026-04-22 12:53 | 70.02210 | 125.81160 | 47197 ft | 511 kts | 300° |
| 2026-04-22 12:54 | 70.05884 | 125.64104 | 47198 ft | 511 kts | 299° |
| 2026-04-22 12:54 | 70.09604 | 125.46629 | 47195 ft | 511 kts | 299° |
| 2026-04-22 12:55 | 70.12635 | 125.32314 | 47188 ft | 511 kts | 299° |
| 2026-04-22 12:55 | 70.16925 | 125.11878 | 47189 ft | 511 kts | 299° |
| 2026-04-22 12:56 | 70.20527 | 124.94567 | 47183 ft | 511 kts | 298° |
| 2026-04-22 12:56 | 70.24148 | 124.77025 | 47182 ft | 511 kts | 298° |
| 2026-04-22 12:57 | 70.27774 | 124.59302 | 47184 ft | 511 kts | 298° |
| 2026-04-22 12:57 | 70.31387 | 124.41503 | 47183 ft | 511 kts | 298° |
| 2026-04-22 12:58 | 70.34913 | 124.23984 | 47178 ft | 511 kts | 298° |
| 2026-04-22 12:58 | 70.38456 | 124.06233 | 47190 ft | 511 kts | 298° |
| 2026-04-22 12:59 | 70.42034 | 123.88155 | 47173 ft | 511 kts | 298° |
| 2026-04-22 12:59 | 70.45495 | 123.70522 | 47178 ft | 511 kts | 297° |
| 2026-04-22 13:00 | 70.49017 | 123.52426 | 47193 ft | 511 kts | 297° |
| 2026-04-22 13:00 | 70.52514 | 123.34523 | 47200 ft | 512 kts | 298° |
| 2026-04-22 13:01 | 70.55954 | 123.16973 | 47215 ft | 512 kts | 297° |
| 2026-04-22 13:01 | 70.59428 | 122.98870 | 47207 ft | 512 kts | 297° |
| 2026-04-22 13:02 | 70.62912 | 122.80766 | 47221 ft | 512 kts | 297° |
| 2026-04-22 13:02 | 70.66332 | 122.62671 | 47236 ft | 512 kts | 297° |
| 2026-04-22 13:03 | 70.69742 | 122.44601 | 47237 ft | 512 kts | 297° |
| 2026-04-22 13:03 | 70.73193 | 122.26064 | 47243 ft | 512 kts | 296° |
| 2026-04-22 13:04 | 70.76598 | 122.07642 | 47250 ft | 512 kts | 296° |
| 2026-04-22 13:04 | 70.80006 | 121.89024 | 47254 ft | 512 kts | 296° |
| 2026-04-22 13:05 | 70.82716 | 121.74095 | 47259 ft | 512 kts | 296° |
| 2026-04-22 13:05 | 70.85938 | 121.56226 | 47273 ft | 512 kts | 296° |
| 2026-04-22 13:06 | 70.89267 | 121.37579 | 47270 ft | 512 kts | 295° |
| 2026-04-22 13:06 | 70.92583 | 121.18850 | 47278 ft | 512 kts | 295° |
| 2026-04-22 13:07 | 70.95885 | 121.00021 | 47277 ft | 512 kts | 295° |
| 2026-04-22 13:07 | 70.99163 | 120.81166 | 47280 ft | 512 kts | 295° |
| 2026-04-22 13:08 | 71.02374 | 120.62521 | 47284 ft | 512 kts | 295° |
| 2026-04-22 13:08 | 71.05555 | 120.43884 | 47290 ft | 512 kts | 295° |
| 2026-04-22 13:09 | 71.08754 | 120.24965 | 47286 ft | 512 kts | 294° |
| 2026-04-22 13:09 | 71.11925 | 120.05824 | 47287 ft | 512 kts | 294° |
| 2026-04-22 13:10 | 71.15113 | 119.86461 | 47293 ft | 512 kts | 294° |
| 2026-04-22 13:10 | 71.18258 | 119.67160 | 47289 ft | 512 kts | 294° |
| 2026-04-22 13:11 | 71.21270 | 119.48485 | 47296 ft | 512 kts | 294° |
| 2026-04-22 13:11 | 71.24365 | 119.29155 | 47287 ft | 512 kts | 293° |
| 2026-04-22 13:12 | 71.27461 | 119.09624 | 47295 ft | 512 kts | 293° |
| 2026-04-22 13:12 | 71.30517 | 118.90183 | 47294 ft | 512 kts | 293° |
| 2026-04-22 13:13 | 71.33556 | 118.70634 | 47302 ft | 512 kts | 293° |
| 2026-04-22 13:13 | 71.36580 | 118.51008 | 47299 ft | 512 kts | 292° |
| 2026-04-22 13:14 | 71.39528 | 118.31673 | 47298 ft | 512 kts | 292° |
| 2026-04-22 13:14 | 71.42495 | 118.12037 | 47301 ft | 512 kts | 292° |
| 2026-04-22 13:15 | 71.45437 | 117.92358 | 47304 ft | 512 kts | 292° |
| 2026-04-22 13:15 | 71.48325 | 117.72853 | 47305 ft | 512 kts | 292° |
| 2026-04-22 13:16 | 71.51266 | 117.52784 | 47309 ft | 512 kts | 292° |
| 2026-04-22 13:16 | 71.54154 | 117.32852 | 47308 ft | 512 kts | 291° |
| 2026-04-22 13:17 | 71.57007 | 117.12963 | 47309 ft | 512 kts | 291° |
| 2026-04-22 13:17 | 71.59884 | 116.92696 | 47311 ft | 512 kts | 291° |
| 2026-04-22 13:18 | 71.62718 | 116.72522 | 47310 ft | 512 kts | 291° |
| 2026-04-22 13:18 | 71.65506 | 116.52465 | 47316 ft | 512 kts | 291° |
| 2026-04-22 13:19 | 71.68253 | 116.32495 | 47312 ft | 512 kts | 290° |
| 2026-04-22 13:19 | 71.70996 | 116.12345 | 47305 ft | 512 kts | 290° |
| 2026-04-22 13:20 | 71.73741 | 115.91960 | 47315 ft | 512 kts | 290° |
| 2026-04-22 13:20 | 71.76418 | 115.71873 | 47305 ft | 512 kts | 290° |
| 2026-04-22 13:21 | 71.79156 | 115.51095 | 47316 ft | 512 kts | 290° |
| 2026-04-22 13:21 | 71.81823 | 115.30638 | 47319 ft | 511 kts | 290° |
| 2026-04-22 13:22 | 71.84484 | 115.10004 | 47329 ft | 511 kts | 289° |
| 2026-04-22 13:22 | 71.87128 | 114.89261 | 47324 ft | 511 kts | 289° |
| 2026-04-22 13:23 | 71.89743 | 114.68523 | 47331 ft | 512 kts | 289° |
| 2026-04-22 13:23 | 71.92339 | 114.47693 | 47330 ft | 512 kts | 289° |
| 2026-04-22 13:24 | 71.94849 | 114.27332 | 47328 ft | 512 kts | 289° |
| 2026-04-22 13:24 | 71.97404 | 114.06356 | 47339 ft | 512 kts | 288° |
| 2026-04-22 13:25 | 71.99885 | 113.85367 | 47343 ft | 512 kts | 288° |
| 2026-04-22 13:25 | 72.02337 | 113.64521 | 47345 ft | 512 kts | 288° |
| 2026-04-22 13:26 | 72.04779 | 113.43469 | 47345 ft | 512 kts | 288° |
| 2026-04-22 13:26 | 72.07200 | 113.22322 | 47351 ft | 512 kts | 288° |
| 2026-04-22 13:27 | 72.09601 | 113.01151 | 47345 ft | 512 kts | 287° |
| 2026-04-22 13:27 | 72.11937 | 112.80242 | 47354 ft | 512 kts | 287° |
| 2026-04-22 13:28 | 72.14302 | 112.58875 | 47350 ft | 512 kts | 287° |
| 2026-04-22 13:28 | 72.16553 | 112.38234 | 47359 ft | 512 kts | 287° |
| 2026-04-22 13:29 | 72.18787 | 112.17555 | 47351 ft | 512 kts | 287° |
| 2026-04-22 13:29 | 72.21083 | 111.96347 | 47359 ft | 512 kts | 287° |
| 2026-04-22 13:30 | 72.23352 | 111.74989 | 47358 ft | 512 kts | 286° |
| 2026-04-22 13:30 | 72.25650 | 111.53142 | 47357 ft | 512 kts | 286° |
| 2026-04-22 13:31 | 72.27881 | 111.31642 | 47368 ft | 512 kts | 285° |
| 2026-04-22 13:31 | 72.30078 | 111.10168 | 47361 ft | 512 kts | 285° |
| 2026-04-22 13:32 | 72.32258 | 110.88626 | 47371 ft | 512 kts | 285° |
| 2026-04-22 13:32 | 72.34446 | 110.66669 | 47358 ft | 512 kts | 285° |
| 2026-04-22 13:33 | 72.36596 | 110.44839 | 47359 ft | 512 kts | 285° |
| 2026-04-22 13:33 | 72.38737 | 110.22770 | 47366 ft | 512 kts | 284° |
| 2026-04-22 13:34 | 72.40788 | 110.01357 | 47360 ft | 512 kts | 284° |
| 2026-04-22 13:34 | 72.42854 | 109.79478 | 47362 ft | 512 kts | 284° |
| 2026-04-22 13:35 | 72.44893 | 109.57589 | 47364 ft | 512 kts | 284° |
| 2026-04-22 13:35 | 72.46955 | 109.35127 | 47370 ft | 512 kts | 284° |
| 2026-04-22 13:36 | 72.48945 | 109.13140 | 47360 ft | 512 kts | 283° |
| 2026-04-22 13:36 | 72.50927 | 108.90916 | 47365 ft | 512 kts | 283° |
| 2026-04-22 13:37 | 72.52872 | 108.68785 | 47366 ft | 512 kts | 283° |
| 2026-04-22 13:37 | 72.54788 | 108.46668 | 47368 ft | 512 kts | 283° |
| 2026-04-22 13:38 | 72.56681 | 108.24474 | 47363 ft | 512 kts | 283° |
| 2026-04-22 13:38 | 72.59484 | 107.90983 | 47360 ft | 512 kts | 282° |
| 2026-04-22 13:39 | 72.61335 | 107.68428 | 47366 ft | 512 kts | 282° |
| 2026-04-22 13:39 | 72.63124 | 107.46291 | 47360 ft | 512 kts | 282° |
| 2026-04-22 13:40 | 72.64891 | 107.24088 | 47362 ft | 512 kts | 282° |
| 2026-04-22 13:40 | 72.66690 | 107.01097 | 47361 ft | 512 kts | 281° |
| 2026-04-22 13:41 | 72.68434 | 106.78439 | 47363 ft | 512 kts | 281° |
| 2026-04-22 13:41 | 72.70107 | 106.56355 | 47358 ft | 512 kts | 281° |
| 2026-04-22 13:42 | 72.71799 | 106.33637 | 47352 ft | 512 kts | 281° |
| 2026-04-22 13:42 | 72.73461 | 106.10930 | 47357 ft | 512 kts | 281° |
| 2026-04-22 13:43 | 72.75089 | 105.88300 | 47358 ft | 512 kts | 281° |
| 2026-04-22 13:43 | 72.76708 | 105.65408 | 47354 ft | 512 kts | 280° |
| 2026-04-22 13:44 | 72.78246 | 105.43263 | 47353 ft | 512 kts | 280° |
| 2026-04-22 13:44 | 72.79834 | 105.19986 | 47347 ft | 512 kts | 280° |
| 2026-04-22 13:45 | 72.81376 | 104.96952 | 47351 ft | 512 kts | 279° |
| 2026-04-22 13:45 | 72.82885 | 104.73999 | 47345 ft | 512 kts | 279° |
| 2026-04-22 13:46 | 72.84364 | 104.51055 | 47349 ft | 512 kts | 279° |
| 2026-04-22 13:46 | 72.85810 | 104.28182 | 47346 ft | 512 kts | 279° |
| 2026-04-22 13:47 | 72.87232 | 104.05261 | 47352 ft | 512 kts | 279° |
| 2026-04-22 13:47 | 72.88650 | 103.81927 | 47347 ft | 512 kts | 279° |
| 2026-04-22 13:48 | 72.90020 | 103.58938 | 47338 ft | 513 kts | 278° |
| 2026-04-22 13:48 | 72.91379 | 103.35617 | 47337 ft | 513 kts | 278° |
| 2026-04-22 13:49 | 72.92691 | 103.12648 | 47337 ft | 514 kts | 278° |
| 2026-04-22 13:49 | 72.94007 | 102.89085 | 47347 ft | 514 kts | 278° |
| 2026-04-22 13:50 | 72.95069 | 102.69705 | 47333 ft | 515 kts | 278° |
| 2026-04-22 13:50 | 72.96544 | 102.42124 | 47332 ft | 516 kts | 278° |
| 2026-04-22 13:51 | 72.97752 | 102.18995 | 47328 ft | 516 kts | 277° |
| 2026-04-22 13:51 | 72.98947 | 101.95565 | 47323 ft | 517 kts | 277° |
| 2026-04-22 13:52 | 72.99931 | 101.75831 | 47325 ft | 517 kts | 277° |
| 2026-04-22 13:52 | 73.01099 | 101.51870 | 47323 ft | 518 kts | 277° |
| 2026-04-22 13:53 | 73.02407 | 101.24299 | 47321 ft | 519 kts | 277° |
| 2026-04-22 13:53 | 73.03327 | 101.04400 | 47316 ft | 519 kts | 277° |
| 2026-04-22 13:54 | 73.04377 | 100.81118 | 47313 ft | 520 kts | 276° |
| 2026-04-22 13:54 | 73.05438 | 100.56944 | 47310 ft | 520 kts | 276° |
| 2026-04-22 13:55 | 73.06462 | 100.32953 | 47311 ft | 521 kts | 276° |
| 2026-04-22 13:55 | 73.07435 | 100.09492 | 47299 ft | 522 kts | 276° |
| 2026-04-22 13:56 | 73.08414 | 99.85162 | 47300 ft | 522 kts | 276° |
| 2026-04-22 13:56 | 73.09347 | 99.61282 | 47294 ft | 523 kts | 275° |
| 2026-04-22 13:57 | 73.10269 | 99.36897 | 47291 ft | 523 kts | 275° |
| 2026-04-22 13:57 | 73.11157 | 99.12655 | 47282 ft | 524 kts | 275° |
| 2026-04-22 13:58 | 73.12020 | 98.88288 | 47278 ft | 525 kts | 275° |
| 2026-04-22 13:58 | 73.12855 | 98.63864 | 47253 ft | 526 kts | 275° |
| 2026-04-22 13:59 | 73.13663 | 98.39352 | 47274 ft | 526 kts | 274° |
| 2026-04-22 13:59 | 73.14436 | 98.15015 | 47261 ft | 527 kts | 274° |
| 2026-04-22 14:00 | 73.15185 | 97.90467 | 47243 ft | 527 kts | 274° |
| 2026-04-22 14:00 | 73.15890 | 97.66458 | 47253 ft | 528 kts | 273° |
| 2026-04-22 14:01 | 73.16585 | 97.41750 | 47241 ft | 528 kts | 273° |
| 2026-04-22 14:01 | 73.17240 | 97.17446 | 47235 ft | 528 kts | 273° |
| 2026-04-22 14:02 | 73.17885 | 96.92364 | 47225 ft | 527 kts | 272° |
| 2026-04-22 14:02 | 73.18491 | 96.67649 | 47225 ft | 527 kts | 272° |
| 2026-04-22 14:03 | 73.19065 | 96.42962 | 47224 ft | 526 kts | 272° |
| 2026-04-22 14:03 | 73.19607 | 96.18413 | 47220 ft | 526 kts | 272° |
| 2026-04-22 14:04 | 73.20120 | 95.93938 | 47218 ft | 526 kts | 272° |
| 2026-04-22 14:04 | 73.20603 | 95.69278 | 47210 ft | 526 kts | 272° |
| 2026-04-22 14:05 | 73.21066 | 95.44319 | 47210 ft | 526 kts | 272° |
| 2026-04-22 14:06 | 73.21693 | 95.07329 | 47209 ft | 526 kts | 272° |
| 2026-04-22 14:06 | 73.22073 | 94.82856 | 47205 ft | 526 kts | 272° |
| 2026-04-22 14:07 | 73.22422 | 94.58398 | 47193 ft | 526 kts | 271° |
| 2026-04-22 14:07 | 73.22746 | 94.33625 | 47190 ft | 525 kts | 271° |
| 2026-04-22 14:08 | 73.23044 | 94.08619 | 47186 ft | 525 kts | 271° |
| 2026-04-22 14:08 | 73.23304 | 93.84392 | 47182 ft | 525 kts | 271° |
| 2026-04-22 14:09 | 73.23542 | 93.59273 | 47179 ft | 525 kts | 271° |
| 2026-04-22 14:09 | 73.23746 | 93.34922 | 47170 ft | 525 kts | 271° |
| 2026-04-22 14:10 | 73.23924 | 93.09752 | 47173 ft | 525 kts | 270° |
| 2026-04-22 14:10 | 73.24070 | 92.85260 | 47170 ft | 525 kts | 270° |
| 2026-04-22 14:11 | 73.24185 | 92.60954 | 47158 ft | 524 kts | 270° |
| 2026-04-22 14:11 | 73.24274 | 92.35899 | 47152 ft | 525 kts | 270° |
| 2026-04-22 14:12 | 73.24332 | 92.11527 | 47150 ft | 525 kts | 270° |
| 2026-04-22 14:12 | 73.24361 | 91.86592 | 47140 ft | 525 kts | 269° |
| 2026-04-22 14:13 | 73.24361 | 91.61983 | 47137 ft | 526 kts | 269° |
| 2026-04-22 14:13 | 73.24331 | 91.37218 | 47134 ft | 526 kts | 269° |
| 2026-04-22 14:14 | 73.24272 | 91.12223 | 47123 ft | 526 kts | 269° |
| 2026-04-22 14:14 | 73.24183 | 90.87654 | 47115 ft | 526 kts | 268° |
| 2026-04-22 14:15 | 73.24065 | 90.62868 | 47122 ft | 526 kts | 268° |
| 2026-04-22 14:15 | 73.23915 | 90.37885 | 47110 ft | 526 kts | 268° |
| 2026-04-22 14:16 | 73.23737 | 90.13091 | 47104 ft | 525 kts | 268° |
| 2026-04-22 14:16 | 73.23535 | 89.88943 | 47091 ft | 525 kts | 268° |
| 2026-04-22 14:17 | 73.23299 | 89.64222 | 47095 ft | 525 kts | 267° |
| 2026-04-22 14:17 | 73.23033 | 89.39480 | 47084 ft | 525 kts | 267° |
| 2026-04-22 14:18 | 73.22719 | 89.14496 | 47083 ft | 525 kts | 265° |
| 2026-04-22 14:18 | 73.21919 | 88.90179 | 47076 ft | 525 kts | 262° |
| 2026-04-22 14:19 | 73.21099 | 88.65815 | 47071 ft | 525 kts | 263° |
| 2026-04-22 14:19 | 73.20254 | 88.41156 | 47090 ft | 525 kts | 262° |
| 2026-04-22 14:20 | 73.18939 | 88.05011 | 47077 ft | 525 kts | 262° |
| 2026-04-22 14:20 | 73.17991 | 87.80349 | 47074 ft | 525 kts | 262° |
| 2026-04-22 14:21 | 73.16571 | 87.43993 | 47061 ft | 526 kts | 262° |
| 2026-04-22 14:22 | 73.15053 | 87.07441 | 47058 ft | 526 kts | 262° |
| 2026-04-22 14:23 | 73.13481 | 86.70963 | 47061 ft | 526 kts | 261° |
| 2026-04-22 14:23 | 73.12402 | 86.46717 | 47050 ft | 526 kts | 261° |
| 2026-04-22 14:24 | 73.11292 | 86.22515 | 47045 ft | 526 kts | 261° |
| 2026-04-22 14:24 | 73.10138 | 85.98050 | 47038 ft | 526 kts | 261° |
| 2026-04-22 14:25 | 73.08976 | 85.73974 | 47034 ft | 526 kts | 260° |
| 2026-04-22 14:25 | 73.07783 | 85.49934 | 47031 ft | 526 kts | 260° |
| 2026-04-22 14:26 | 73.06556 | 85.25764 | 47026 ft | 526 kts | 260° |
| 2026-04-22 14:26 | 73.05318 | 85.02005 | 47024 ft | 526 kts | 259° |
| 2026-04-22 14:27 | 73.04030 | 84.77824 | 47020 ft | 526 kts | 259° |
| 2026-04-22 14:27 | 73.02728 | 84.53964 | 47014 ft | 526 kts | 259° |
| 2026-04-22 14:28 | 73.01389 | 84.29946 | 47010 ft | 525 kts | 259° |
| 2026-04-22 14:28 | 73.00041 | 84.06336 | 47009 ft | 525 kts | 259° |
| 2026-04-22 14:29 | 72.98672 | 83.82840 | 47005 ft | 525 kts | 259° |
| 2026-04-22 14:29 | 72.97271 | 83.59315 | 47006 ft | 525 kts | 258° |
| 2026-04-22 14:30 | 72.95817 | 83.35379 | 46998 ft | 525 kts | 258° |
| 2026-04-22 14:30 | 72.94349 | 83.11723 | 46998 ft | 525 kts | 258° |
| 2026-04-22 14:31 | 72.92837 | 82.87842 | 46992 ft | 525 kts | 258° |
| 2026-04-22 14:31 | 72.91304 | 82.64114 | 46994 ft | 525 kts | 257° |
| 2026-04-22 14:32 | 72.89754 | 82.40578 | 46990 ft | 525 kts | 257° |
| 2026-04-22 14:32 | 72.88175 | 82.17054 | 46989 ft | 525 kts | 257° |
| 2026-04-22 14:33 | 72.86569 | 81.93587 | 46983 ft | 525 kts | 257° |
| 2026-04-22 14:33 | 72.84925 | 81.70005 | 46982 ft | 525 kts | 257° |
| 2026-04-22 14:34 | 72.83244 | 81.46321 | 46979 ft | 524 kts | 257° |
| 2026-04-22 14:34 | 72.81543 | 81.22792 | 46974 ft | 524 kts | 256° |
| 2026-04-22 14:35 | 72.79865 | 80.99979 | 46970 ft | 525 kts | 256° |
| 2026-04-22 14:35 | 72.78135 | 80.76870 | 46965 ft | 525 kts | 256° |
| 2026-04-22 14:36 | 72.76328 | 80.53139 | 46959 ft | 524 kts | 256° |
| 2026-04-22 14:36 | 72.74557 | 80.30266 | 46955 ft | 524 kts | 256° |
| 2026-04-22 14:37 | 72.72711 | 80.06845 | 46943 ft | 524 kts | 256° |
| 2026-04-22 14:37 | 72.70858 | 79.83689 | 46946 ft | 524 kts | 255° |
| 2026-04-22 14:38 | 72.69000 | 79.60882 | 46936 ft | 524 kts | 255° |
| 2026-04-22 14:38 | 72.67091 | 79.37784 | 46930 ft | 524 kts | 255° |
| 2026-04-22 14:39 | 72.65478 | 79.18555 | 46928 ft | 524 kts | 255° |
| 2026-04-22 14:39 | 72.63197 | 78.91805 | 46922 ft | 524 kts | 255° |
| 2026-04-22 14:40 | 72.60206 | 78.57419 | 46919 ft | 525 kts | 254° |
| 2026-04-22 14:40 | 72.58206 | 78.34877 | 46919 ft | 525 kts | 254° |
| 2026-04-22 14:41 | 72.56168 | 78.12213 | 46911 ft | 525 kts | 254° |
| 2026-04-22 14:41 | 72.54425 | 77.93127 | 46904 ft | 525 kts | 253° |
| 2026-04-22 14:42 | 72.52320 | 77.70346 | 46905 ft | 525 kts | 253° |
| 2026-04-22 14:42 | 72.50205 | 77.47818 | 46900 ft | 525 kts | 253° |
| 2026-04-22 14:43 | 72.47987 | 77.24514 | 46902 ft | 525 kts | 253° |
| 2026-04-22 14:43 | 72.45769 | 77.01558 | 46893 ft | 510 kts | 252° |
| 2026-04-22 14:44 | 72.44697 | 76.90592 | 46879 ft | 488 kts | 253° |
| 2026-04-22 14:44 | 72.43681 | 76.80246 | 46876 ft | 467 kts | 252° |
| 2026-04-22 14:44 | 72.42688 | 76.70198 | 46868 ft | 448 kts | 253° |
| 2026-04-22 14:44 | 72.41733 | 76.60589 | 46866 ft | 434 kts | 252° |
| 2026-04-22 14:45 | 72.39848 | 76.41787 | 46888 ft | 432 kts | 252° |
| 2026-04-22 14:45 | 72.37908 | 76.22693 | 46902 ft | 445 kts | 252° |
| 2026-04-22 14:46 | 72.35907 | 76.03215 | 46909 ft | 456 kts | 252° |
| 2026-04-22 14:46 | 72.33828 | 75.83219 | 46894 ft | 462 kts | 252° |